sensor_id;sensor_type;location;lat;lon;timestamp;P1;durP1;ratioP1;P2;durP2;ratioP2
11761;SDS011;5938;47.098;15.474;2022-10-16T00:00:36;91.57;;;45.80;;
11761;SDS011;5938;47.098;15.474;2022-10-16T00:04:42;71.77;;;42.90;;
11761;SDS011;5938;47.098;15.474;2022-10-16T00:08:46;64.13;;;43.47;;
11761;SDS011;5938;47.098;15.474;2022-10-16T00:12:50;67.67;;;41.60;;
11761;SDS011;5938;47.098;15.474;2022-10-16T00:16:53;71.30;;;43.63;;
11761;SDS011;5938;47.098;15.474;2022-10-16T00:21:02;68.57;;;42.07;;
11761;SDS011;5938;47.098;15.474;2022-10-16T00:25:07;68.30;;;42.90;;
11761;SDS011;5938;47.098;15.474;2022-10-16T00:29:10;78.90;;;47.30;;
11761;SDS011;5938;47.098;15.474;2022-10-16T00:33:14;70.40;;;45.30;;
11761;SDS011;5938;47.098;15.474;2022-10-16T00:37:18;78.53;;;46.43;;
11761;SDS011;5938;47.098;15.474;2022-10-16T00:41:22;68.67;;;44.07;;
11761;SDS011;5938;47.098;15.474;2022-10-16T00:45:27;74.63;;;47.57;;
11761;SDS011;5938;47.098;15.474;2022-10-16T00:49:30;67.80;;;44.67;;
11761;SDS011;5938;47.098;15.474;2022-10-16T00:53:35;64.83;;;41.87;;
11761;SDS011;5938;47.098;15.474;2022-10-16T00:57:39;65.23;;;40.50;;
11761;SDS011;5938;47.098;15.474;2022-10-16T01:01:44;65.97;;;42.17;;
11761;SDS011;5938;47.098;15.474;2022-10-16T01:05:49;75.57;;;44.83;;
11761;SDS011;5938;47.098;15.474;2022-10-16T01:10:00;68.60;;;42.43;;
11761;SDS011;5938;47.098;15.474;2022-10-16T01:14:11;64.30;;;40.03;;
11761;SDS011;5938;47.098;15.474;2022-10-16T01:18:23;63.17;;;39.87;;
11761;SDS011;5938;47.098;15.474;2022-10-16T01:22:42;54.40;;;37.83;;
11761;SDS011;5938;47.098;15.474;2022-10-16T01:31:24;58.17;;;39.57;;
11761;SDS011;5938;47.098;15.474;2022-10-16T01:35:32;57.20;;;39.27;;
11761;SDS011;5938;47.098;15.474;2022-10-16T01:39:39;68.83;;;43.20;;
11761;SDS011;5938;47.098;15.474;2022-10-16T01:43:46;68.47;;;39.17;;
11761;SDS011;5938;47.098;15.474;2022-10-16T01:47:55;60.80;;;38.73;;
11761;SDS011;5938;47.098;15.474;2022-10-16T01:52:05;66.67;;;42.07;;
11761;SDS011;5938;47.098;15.474;2022-10-16T01:56:13;66.57;;;41.63;;
11761;SDS011;5938;47.098;15.474;2022-10-16T02:00:22;77.77;;;45.50;;
11761;SDS011;5938;47.098;15.474;2022-10-16T02:04:27;74.40;;;42.07;;
11761;SDS011;5938;47.098;15.474;2022-10-16T02:08:33;63.30;;;40.83;;
11761;SDS011;5938;47.098;15.474;2022-10-16T02:12:38;64.80;;;42.20;;
11761;SDS011;5938;47.098;15.474;2022-10-16T02:16:46;62.73;;;41.53;;
11761;SDS011;5938;47.098;15.474;2022-10-16T02:20:51;72.40;;;45.40;;
11761;SDS011;5938;47.098;15.474;2022-10-16T02:24:58;65.87;;;41.67;;
11761;SDS011;5938;47.098;15.474;2022-10-16T02:29:06;72.27;;;42.20;;
11761;SDS011;5938;47.098;15.474;2022-10-16T02:33:15;72.10;;;43.23;;
11761;SDS011;5938;47.098;15.474;2022-10-16T02:37:21;64.60;;;41.93;;
11761;SDS011;5938;47.098;15.474;2022-10-16T02:41:25;62.10;;;41.10;;
11761;SDS011;5938;47.098;15.474;2022-10-16T02:45:28;56.70;;;40.43;;
11761;SDS011;5938;47.098;15.474;2022-10-16T02:49:33;67.00;;;39.87;;
11761;SDS011;5938;47.098;15.474;2022-10-16T02:53:36;64.63;;;40.07;;
11761;SDS011;5938;47.098;15.474;2022-10-16T02:57:39;56.40;;;37.47;;
11761;SDS011;5938;47.098;15.474;2022-10-16T03:01:43;66.40;;;41.07;;
11761;SDS011;5938;47.098;15.474;2022-10-16T03:05:47;62.13;;;40.37;;
11761;SDS011;5938;47.098;15.474;2022-10-16T03:09:51;57.97;;;39.60;;
11761;SDS011;5938;47.098;15.474;2022-10-16T03:13:55;68.43;;;38.43;;
11761;SDS011;5938;47.098;15.474;2022-10-16T03:17:59;59.87;;;37.17;;
11761;SDS011;5938;47.098;15.474;2022-10-16T03:22:04;65.67;;;39.70;;
11761;SDS011;5938;47.098;15.474;2022-10-16T03:26:08;52.73;;;35.60;;
11761;SDS011;5938;47.098;15.474;2022-10-16T03:30:11;57.00;;;37.47;;
11761;SDS011;5938;47.098;15.474;2022-10-16T03:34:15;57.23;;;36.77;;
11761;SDS011;5938;47.098;15.474;2022-10-16T03:38:20;62.20;;;37.23;;
11761;SDS011;5938;47.098;15.474;2022-10-16T03:42:24;51.83;;;34.53;;
11761;SDS011;5938;47.098;15.474;2022-10-16T03:46:27;61.00;;;35.67;;
11761;SDS011;5938;47.098;15.474;2022-10-16T03:50:31;54.40;;;36.27;;
11761;SDS011;5938;47.098;15.474;2022-10-16T03:54:35;65.77;;;40.20;;
11761;SDS011;5938;47.098;15.474;2022-10-16T03:58:39;69.07;;;40.87;;
11761;SDS011;5938;47.098;15.474;2022-10-16T04:02:42;63.10;;;42.70;;
11761;SDS011;5938;47.098;15.474;2022-10-16T04:06:46;66.90;;;40.40;;
11761;SDS011;5938;47.098;15.474;2022-10-16T04:10:51;60.17;;;39.30;;
11761;SDS011;5938;47.098;15.474;2022-10-16T04:14:54;63.93;;;41.17;;
11761;SDS011;5938;47.098;15.474;2022-10-16T04:23:30;66.83;;;37.70;;
11761;SDS011;5938;47.098;15.474;2022-10-16T04:27:35;64.20;;;39.77;;
11761;SDS011;5938;47.098;15.474;2022-10-16T04:31:43;73.93;;;42.20;;
11761;SDS011;5938;47.098;15.474;2022-10-16T04:35:47;65.37;;;42.43;;
11761;SDS011;5938;47.098;15.474;2022-10-16T04:39:51;63.97;;;39.77;;
11761;SDS011;5938;47.098;15.474;2022-10-16T04:43:56;65.73;;;40.90;;
11761;SDS011;5938;47.098;15.474;2022-10-16T04:48:00;61.93;;;37.80;;
11761;SDS011;5938;47.098;15.474;2022-10-16T04:52:03;62.53;;;40.27;;
11761;SDS011;5938;47.098;15.474;2022-10-16T04:56:07;58.67;;;36.97;;
11761;SDS011;5938;47.098;15.474;2022-10-16T05:00:12;61.77;;;40.13;;
11761;SDS011;5938;47.098;15.474;2022-10-16T05:04:16;51.20;;;35.10;;
11761;SDS011;5938;47.098;15.474;2022-10-16T05:08:19;59.33;;;35.87;;
11761;SDS011;5938;47.098;15.474;2022-10-16T05:12:23;61.70;;;36.47;;
11761;SDS011;5938;47.098;15.474;2022-10-16T05:16:28;58.07;;;38.17;;
11761;SDS011;5938;47.098;15.474;2022-10-16T05:20:32;54.00;;;38.27;;
11761;SDS011;5938;47.098;15.474;2022-10-16T05:24:36;56.60;;;37.00;;
11761;SDS011;5938;47.098;15.474;2022-10-16T05:28:39;63.27;;;37.13;;
11761;SDS011;5938;47.098;15.474;2022-10-16T05:32:47;55.27;;;36.97;;
11761;SDS011;5938;47.098;15.474;2022-10-16T05:36:50;51.60;;;36.30;;
11761;SDS011;5938;47.098;15.474;2022-10-16T05:40:54;66.47;;;43.53;;
11761;SDS011;5938;47.098;15.474;2022-10-16T05:44:57;70.50;;;46.47;;
11761;SDS011;5938;47.098;15.474;2022-10-16T05:49:02;64.50;;;43.40;;
11761;SDS011;5938;47.098;15.474;2022-10-16T05:53:06;72.53;;;46.40;;
11761;SDS011;5938;47.098;15.474;2022-10-16T05:57:09;63.90;;;42.90;;
11761;SDS011;5938;47.098;15.474;2022-10-16T06:01:13;65.97;;;48.50;;
11761;SDS011;5938;47.098;15.474;2022-10-16T06:05:19;72.63;;;48.77;;
11761;SDS011;5938;47.098;15.474;2022-10-16T06:09:22;70.53;;;48.80;;
11761;SDS011;5938;47.098;15.474;2022-10-16T06:13:26;63.50;;;46.63;;
11761;SDS011;5938;47.098;15.474;2022-10-16T06:17:29;56.20;;;40.33;;
11761;SDS011;5938;47.098;15.474;2022-10-16T06:21:34;53.17;;;39.67;;
11761;SDS011;5938;47.098;15.474;2022-10-16T06:25:37;53.30;;;39.70;;
11761;SDS011;5938;47.098;15.474;2022-10-16T06:29:41;74.10;;;51.07;;
11761;SDS011;5938;47.098;15.474;2022-10-16T06:33:45;54.33;;;39.13;;
11761;SDS011;5938;47.098;15.474;2022-10-16T06:37:49;55.90;;;39.67;;
11761;SDS011;5938;47.098;15.474;2022-10-16T06:41:54;57.03;;;39.70;;
11761;SDS011;5938;47.098;15.474;2022-10-16T06:45:59;62.43;;;42.47;;
11761;SDS011;5938;47.098;15.474;2022-10-16T06:50:03;64.77;;;43.00;;
11761;SDS011;5938;47.098;15.474;2022-10-16T06:54:10;63.80;;;42.83;;
11761;SDS011;5938;47.098;15.474;2022-10-16T06:58:14;59.23;;;41.17;;
11761;SDS011;5938;47.098;15.474;2022-10-16T07:02:17;51.20;;;36.20;;
11761;SDS011;5938;47.098;15.474;2022-10-16T07:06:53;61.93;;;41.40;;
11761;SDS011;5938;47.098;15.474;2022-10-16T07:10:59;53.50;;;34.00;;
11761;SDS011;5938;47.098;15.474;2022-10-16T07:15:04;54.57;;;35.40;;
11761;SDS011;5938;47.098;15.474;2022-10-16T07:19:08;69.37;;;40.20;;
11761;SDS011;5938;47.098;15.474;2022-10-16T07:23:14;63.50;;;38.80;;
11761;SDS011;5938;47.098;15.474;2022-10-16T07:27:19;60.40;;;38.03;;
11761;SDS011;5938;47.098;15.474;2022-10-16T07:31:25;54.80;;;35.90;;
11761;SDS011;5938;47.098;15.474;2022-10-16T07:35:30;54.07;;;36.57;;
11761;SDS011;5938;47.098;15.474;2022-10-16T07:39:33;52.20;;;35.80;;
11761;SDS011;5938;47.098;15.474;2022-10-16T07:43:39;43.37;;;33.00;;
11761;SDS011;5938;47.098;15.474;2022-10-16T07:47:42;46.97;;;31.83;;
11761;SDS011;5938;47.098;15.474;2022-10-16T07:51:46;47.50;;;31.40;;
11761;SDS011;5938;47.098;15.474;2022-10-16T07:55:50;42.10;;;31.73;;
11761;SDS011;5938;47.098;15.474;2022-10-16T07:59:57;37.17;;;30.37;;
11761;SDS011;5938;47.098;15.474;2022-10-16T08:04:01;42.93;;;30.37;;
11761;SDS011;5938;47.098;15.474;2022-10-16T08:08:10;37.07;;;26.93;;
11761;SDS011;5938;47.098;15.474;2022-10-16T08:12:17;41.77;;;28.20;;
11761;SDS011;5938;47.098;15.474;2022-10-16T08:16:23;39.70;;;27.70;;
11761;SDS011;5938;47.098;15.474;2022-10-16T08:20:30;32.33;;;25.50;;
11761;SDS011;5938;47.098;15.474;2022-10-16T08:24:34;33.33;;;23.90;;
11761;SDS011;5938;47.098;15.474;2022-10-16T08:28:44;30.17;;;23.40;;
11761;SDS011;5938;47.098;15.474;2022-10-16T08:32:49;33.23;;;23.90;;
11761;SDS011;5938;47.098;15.474;2022-10-16T08:36:53;30.30;;;22.93;;
11761;SDS011;5938;47.098;15.474;2022-10-16T08:41:00;24.23;;;21.60;;
11761;SDS011;5938;47.098;15.474;2022-10-16T08:45:21;24.60;;;20.40;;
11761;SDS011;5938;47.098;15.474;2022-10-16T08:49:38;25.03;;;22.43;;
11761;SDS011;5938;47.098;15.474;2022-10-16T08:53:44;26.37;;;23.00;;
11761;SDS011;5938;47.098;15.474;2022-10-16T08:57:52;25.03;;;22.30;;
11761;SDS011;5938;47.098;15.474;2022-10-16T09:01:56;24.03;;;21.17;;
11761;SDS011;5938;47.098;15.474;2022-10-16T09:06:12;22.27;;;20.00;;
11761;SDS011;5938;47.098;15.474;2022-10-16T09:10:26;25.50;;;22.30;;
11761;SDS011;5938;47.098;15.474;2022-10-16T09:19:09;27.10;;;24.07;;
11761;SDS011;5938;47.098;15.474;2022-10-16T09:23:25;23.87;;;21.47;;
11761;SDS011;5938;47.098;15.474;2022-10-16T09:27:30;23.67;;;21.10;;
11761;SDS011;5938;47.098;15.474;2022-10-16T09:31:35;24.20;;;21.90;;
11761;SDS011;5938;47.098;15.474;2022-10-16T09:35:40;26.77;;;24.13;;
11761;SDS011;5938;47.098;15.474;2022-10-16T09:39:47;25.53;;;21.90;;
11761;SDS011;5938;47.098;15.474;2022-10-16T09:43:54;25.13;;;20.40;;
11761;SDS011;5938;47.098;15.474;2022-10-16T09:48:01;23.13;;;20.73;;
11761;SDS011;5938;47.098;15.474;2022-10-16T09:52:15;24.03;;;21.30;;
11761;SDS011;5938;47.098;15.474;2022-10-16T09:56:27;21.57;;;19.60;;
11761;SDS011;5938;47.098;15.474;2022-10-16T10:00:34;21.87;;;19.90;;
11761;SDS011;5938;47.098;15.474;2022-10-16T10:04:38;23.37;;;20.37;;
11761;SDS011;5938;47.098;15.474;2022-10-16T10:08:53;22.60;;;20.27;;
11761;SDS011;5938;47.098;15.474;2022-10-16T10:13:04;22.87;;;20.70;;
11761;SDS011;5938;47.098;15.474;2022-10-16T10:17:21;22.13;;;19.93;;
11761;SDS011;5938;47.098;15.474;2022-10-16T10:21:26;21.47;;;19.37;;
11761;SDS011;5938;47.098;15.474;2022-10-16T10:25:36;20.60;;;18.70;;
11761;SDS011;5938;47.098;15.474;2022-10-16T10:29:48;21.13;;;19.00;;
11761;SDS011;5938;47.098;15.474;2022-10-16T10:33:58;19.10;;;17.20;;
11761;SDS011;5938;47.098;15.474;2022-10-16T10:38:11;19.87;;;17.87;;
11761;SDS011;5938;47.098;15.474;2022-10-16T10:42:27;20.27;;;18.47;;
11761;SDS011;5938;47.098;15.474;2022-10-16T10:46:38;18.90;;;17.20;;
11761;SDS011;5938;47.098;15.474;2022-10-16T10:50:48;19.50;;;17.80;;
11761;SDS011;5938;47.098;15.474;2022-10-16T10:54:56;19.90;;;18.00;;
11761;SDS011;5938;47.098;15.474;2022-10-16T11:04:05;20.30;;;18.40;;
11761;SDS011;5938;47.098;15.474;2022-10-16T11:08:25;17.87;;;16.27;;
11761;SDS011;5938;47.098;15.474;2022-10-16T11:12:34;21.20;;;19.40;;
11761;SDS011;5938;47.098;15.474;2022-10-16T11:16:43;19.47;;;17.80;;
11761;SDS011;5938;47.098;15.474;2022-10-16T11:20:56;20.23;;;18.33;;
11761;SDS011;5938;47.098;15.474;2022-10-16T11:25:05;19.23;;;17.43;;
11761;SDS011;5938;47.098;15.474;2022-10-16T11:29:16;18.00;;;16.43;;
11761;SDS011;5938;47.098;15.474;2022-10-16T11:33:27;18.83;;;17.10;;
11761;SDS011;5938;47.098;15.474;2022-10-16T11:37:38;18.43;;;16.63;;
11761;SDS011;5938;47.098;15.474;2022-10-16T11:41:46;19.70;;;17.90;;
11761;SDS011;5938;47.098;15.474;2022-10-16T11:45:52;17.47;;;15.90;;
11761;SDS011;5938;47.098;15.474;2022-10-16T11:49:58;18.77;;;16.73;;
11761;SDS011;5938;47.098;15.474;2022-10-16T11:54:08;19.30;;;17.40;;
11761;SDS011;5938;47.098;15.474;2022-10-16T11:58:21;20.27;;;16.47;;
11761;SDS011;5938;47.098;15.474;2022-10-16T12:02:32;16.23;;;14.80;;
11761;SDS011;5938;47.098;15.474;2022-10-16T12:06:49;17.00;;;15.50;;
11761;SDS011;5938;47.098;15.474;2022-10-16T12:11:07;18.53;;;14.63;;
11761;SDS011;5938;47.098;15.474;2022-10-16T12:15:24;17.23;;;15.70;;
11761;SDS011;5938;47.098;15.474;2022-10-16T12:19:56;17.07;;;15.57;;
11761;SDS011;5938;47.098;15.474;2022-10-16T12:24:01;14.50;;;13.10;;
11761;SDS011;5938;47.098;15.474;2022-10-16T12:28:17;14.33;;;13.13;;
11761;SDS011;5938;47.098;15.474;2022-10-16T12:32:26;14.77;;;13.57;;
11761;SDS011;5938;47.098;15.474;2022-10-16T12:36:47;14.67;;;13.40;;
11761;SDS011;5938;47.098;15.474;2022-10-16T12:40:55;14.90;;;13.40;;
11761;SDS011;5938;47.098;15.474;2022-10-16T12:45:12;13.17;;;12.13;;
11761;SDS011;5938;47.098;15.474;2022-10-16T12:49:31;14.63;;;13.40;;
11761;SDS011;5938;47.098;15.474;2022-10-16T12:53:38;15.47;;;14.03;;
11761;SDS011;5938;47.098;15.474;2022-10-16T12:57:43;15.23;;;13.83;;
11761;SDS011;5938;47.098;15.474;2022-10-16T13:02:23;15.83;;;14.30;;
11761;SDS011;5938;47.098;15.474;2022-10-16T13:06:51;13.10;;;11.97;;
11761;SDS011;5938;47.098;15.474;2022-10-16T13:11:07;17.83;;;14.60;;
11761;SDS011;5938;47.098;15.474;2022-10-16T13:15:29;16.27;;;14.67;;
11761;SDS011;5938;47.098;15.474;2022-10-16T13:19:44;14.63;;;13.23;;
11761;SDS011;5938;47.098;15.474;2022-10-16T13:23:56;14.80;;;13.43;;
11761;SDS011;5938;47.098;15.474;2022-10-16T13:28:05;15.80;;;14.30;;
11761;SDS011;5938;47.098;15.474;2022-10-16T13:32:10;16.63;;;14.93;;
11761;SDS011;5938;47.098;15.474;2022-10-16T13:36:20;15.87;;;14.47;;
11761;SDS011;5938;47.098;15.474;2022-10-16T13:40:25;15.17;;;13.67;;
11761;SDS011;5938;47.098;15.474;2022-10-16T13:44:28;20.47;;;18.50;;
11761;SDS011;5938;47.098;15.474;2022-10-16T13:48:39;17.83;;;15.77;;
11761;SDS011;5938;47.098;15.474;2022-10-16T13:52:44;18.33;;;16.03;;
11761;SDS011;5938;47.098;15.474;2022-10-16T13:56:48;20.50;;;17.70;;
11761;SDS011;5938;47.098;15.474;2022-10-16T14:01:04;19.40;;;17.40;;
11761;SDS011;5938;47.098;15.474;2022-10-16T14:05:18;18.83;;;17.00;;
11761;SDS011;5938;47.098;15.474;2022-10-16T14:09:23;18.70;;;16.87;;
11761;SDS011;5938;47.098;15.474;2022-10-16T14:13:30;18.70;;;17.00;;
11761;SDS011;5938;47.098;15.474;2022-10-16T14:17:37;17.37;;;15.77;;
11761;SDS011;5938;47.098;15.474;2022-10-16T14:21:48;19.33;;;17.60;;
11761;SDS011;5938;47.098;15.474;2022-10-16T14:25:53;20.33;;;18.23;;
11761;SDS011;5938;47.098;15.474;2022-10-16T14:30:17;19.27;;;17.37;;
11761;SDS011;5938;47.098;15.474;2022-10-16T14:34:29;22.37;;;19.93;;
11761;SDS011;5938;47.098;15.474;2022-10-16T14:38:34;22.27;;;18.33;;
11761;SDS011;5938;47.098;15.474;2022-10-16T14:42:42;18.10;;;16.30;;
11761;SDS011;5938;47.098;15.474;2022-10-16T14:46:46;20.90;;;18.67;;
11761;SDS011;5938;47.098;15.474;2022-10-16T14:50:50;20.87;;;18.67;;
11761;SDS011;5938;47.098;15.474;2022-10-16T14:54:54;22.20;;;18.37;;
11761;SDS011;5938;47.098;15.474;2022-10-16T14:58:59;27.50;;;21.77;;
11761;SDS011;5938;47.098;15.474;2022-10-16T15:03:03;24.47;;;20.27;;
11761;SDS011;5938;47.098;15.474;2022-10-16T15:07:06;26.80;;;19.53;;
11761;SDS011;5938;47.098;15.474;2022-10-16T15:11:10;24.40;;;20.83;;
11761;SDS011;5938;47.098;15.474;2022-10-16T15:15:26;22.40;;;19.00;;
11761;SDS011;5938;47.098;15.474;2022-10-16T15:19:36;26.83;;;20.93;;
11761;SDS011;5938;47.098;15.474;2022-10-16T15:23:39;28.47;;;21.20;;
11761;SDS011;5938;47.098;15.474;2022-10-16T15:27:42;30.27;;;22.20;;
11761;SDS011;5938;47.098;15.474;2022-10-16T15:31:47;31.60;;;22.87;;
11761;SDS011;5938;47.098;15.474;2022-10-16T15:35:51;31.77;;;23.83;;
11761;SDS011;5938;47.098;15.474;2022-10-16T15:39:55;29.80;;;22.87;;
11761;SDS011;5938;47.098;15.474;2022-10-16T15:43:59;28.23;;;24.13;;
11761;SDS011;5938;47.098;15.474;2022-10-16T15:48:06;29.47;;;22.57;;
11761;SDS011;5938;47.098;15.474;2022-10-16T15:52:14;32.13;;;24.60;;
11761;SDS011;5938;47.098;15.474;2022-10-16T15:56:17;28.47;;;22.50;;
11761;SDS011;5938;47.098;15.474;2022-10-16T16:00:20;29.60;;;23.40;;
11761;SDS011;5938;47.098;15.474;2022-10-16T16:04:30;32.20;;;24.10;;
11761;SDS011;5938;47.098;15.474;2022-10-16T16:08:49;37.07;;;27.73;;
11761;SDS011;5938;47.098;15.474;2022-10-16T16:12:53;32.13;;;24.60;;
11761;SDS011;5938;47.098;15.474;2022-10-16T16:16:56;37.47;;;25.57;;
11761;SDS011;5938;47.098;15.474;2022-10-16T16:21:02;37.17;;;26.53;;
11761;SDS011;5938;47.098;15.474;2022-10-16T16:25:06;34.43;;;26.70;;
11761;SDS011;5938;47.098;15.474;2022-10-16T16:29:11;31.60;;;26.73;;
11761;SDS011;5938;47.098;15.474;2022-10-16T16:33:16;39.83;;;28.27;;
11761;SDS011;5938;47.098;15.474;2022-10-16T16:37:21;38.93;;;27.40;;
11761;SDS011;5938;47.098;15.474;2022-10-16T16:41:26;38.60;;;28.63;;
11761;SDS011;5938;47.098;15.474;2022-10-16T16:45:34;44.00;;;30.63;;
11761;SDS011;5938;47.098;15.474;2022-10-16T16:49:38;39.53;;;30.23;;
11761;SDS011;5938;47.098;15.474;2022-10-16T16:53:45;42.37;;;31.60;;
11761;SDS011;5938;47.098;15.474;2022-10-16T16:57:49;44.63;;;32.30;;
11761;SDS011;5938;47.098;15.474;2022-10-16T17:01:53;44.73;;;30.70;;
11761;SDS011;5938;47.098;15.474;2022-10-16T17:05:58;43.70;;;29.40;;
11761;SDS011;5938;47.098;15.474;2022-10-16T17:10:05;47.40;;;31.47;;
11761;SDS011;5938;47.098;15.474;2022-10-16T17:14:11;44.20;;;31.90;;
11761;SDS011;5938;47.098;15.474;2022-10-16T17:18:15;47.83;;;33.20;;
11761;SDS011;5938;47.098;15.474;2022-10-16T17:22:20;45.57;;;31.60;;
11761;SDS011;5938;47.098;15.474;2022-10-16T17:26:27;43.67;;;32.00;;
11761;SDS011;5938;47.098;15.474;2022-10-16T17:30:32;44.63;;;32.50;;
11761;SDS011;5938;47.098;15.474;2022-10-16T17:34:39;59.20;;;32.17;;
11761;SDS011;5938;47.098;15.474;2022-10-16T17:38:44;48.33;;;31.70;;
11761;SDS011;5938;47.098;15.474;2022-10-16T17:42:51;41.90;;;29.53;;
11761;SDS011;5938;47.098;15.474;2022-10-16T17:46:57;43.70;;;32.40;;
11761;SDS011;5938;47.098;15.474;2022-10-16T17:51:03;37.30;;;29.10;;
11761;SDS011;5938;47.098;15.474;2022-10-16T17:55:09;53.17;;;29.63;;
11761;SDS011;5938;47.098;15.474;2022-10-16T17:59:15;48.73;;;33.03;;
11761;SDS011;5938;47.098;15.474;2022-10-16T18:03:24;48.23;;;32.30;;
11761;SDS011;5938;47.098;15.474;2022-10-16T18:07:29;42.70;;;31.70;;
11761;SDS011;5938;47.098;15.474;2022-10-16T18:11:35;63.87;;;31.40;;
11761;SDS011;5938;47.098;15.474;2022-10-16T18:15:41;42.27;;;29.53;;
11761;SDS011;5938;47.098;15.474;2022-10-16T18:19:46;48.80;;;31.93;;
11761;SDS011;5938;47.098;15.474;2022-10-16T18:23:50;40.67;;;30.37;;
11761;SDS011;5938;47.098;15.474;2022-10-16T18:27:55;46.80;;;33.10;;
11761;SDS011;5938;47.098;15.474;2022-10-16T18:32:01;39.80;;;28.57;;
11761;SDS011;5938;47.098;15.474;2022-10-16T18:36:06;47.70;;;30.60;;
11761;SDS011;5938;47.098;15.474;2022-10-16T18:40:13;40.53;;;28.83;;
11761;SDS011;5938;47.098;15.474;2022-10-16T18:44:17;39.53;;;28.77;;
11761;SDS011;5938;47.098;15.474;2022-10-16T18:52:50;40.20;;;29.13;;
11761;SDS011;5938;47.098;15.474;2022-10-16T18:56:55;49.67;;;31.50;;
11761;SDS011;5938;47.098;15.474;2022-10-16T19:01:03;44.70;;;31.03;;
11761;SDS011;5938;47.098;15.474;2022-10-16T19:05:10;43.33;;;32.70;;
11761;SDS011;5938;47.098;15.474;2022-10-16T19:09:17;40.90;;;29.73;;
11761;SDS011;5938;47.098;15.474;2022-10-16T19:13:23;41.57;;;30.60;;
11761;SDS011;5938;47.098;15.474;2022-10-16T19:17:28;44.73;;;30.77;;
11761;SDS011;5938;47.098;15.474;2022-10-16T19:21:37;48.93;;;31.63;;
11761;SDS011;5938;47.098;15.474;2022-10-16T19:25:42;50.97;;;31.63;;
11761;SDS011;5938;47.098;15.474;2022-10-16T19:29:46;51.07;;;32.20;;
11761;SDS011;5938;47.098;15.474;2022-10-16T19:33:50;43.97;;;29.40;;
11761;SDS011;5938;47.098;15.474;2022-10-16T19:37:56;47.60;;;30.43;;
11761;SDS011;5938;47.098;15.474;2022-10-16T19:42:00;39.07;;;28.47;;
11761;SDS011;5938;47.098;15.474;2022-10-16T19:46:04;48.23;;;31.83;;
11761;SDS011;5938;47.098;15.474;2022-10-16T19:50:10;44.20;;;28.70;;
11761;SDS011;5938;47.098;15.474;2022-10-16T19:54:15;48.87;;;31.10;;
11761;SDS011;5938;47.098;15.474;2022-10-16T19:58:19;43.20;;;28.77;;
11761;SDS011;5938;47.098;15.474;2022-10-16T20:02:23;45.10;;;28.07;;
11761;SDS011;5938;47.098;15.474;2022-10-16T20:06:27;48.17;;;31.47;;
11761;SDS011;5938;47.098;15.474;2022-10-16T20:10:31;48.47;;;30.90;;
11761;SDS011;5938;47.098;15.474;2022-10-16T20:14:35;44.50;;;28.10;;
11761;SDS011;5938;47.098;15.474;2022-10-16T20:18:39;48.97;;;32.10;;
11761;SDS011;5938;47.098;15.474;2022-10-16T20:22:43;43.67;;;29.47;;
11761;SDS011;5938;47.098;15.474;2022-10-16T20:26:47;50.10;;;34.10;;
11761;SDS011;5938;47.098;15.474;2022-10-16T20:30:53;47.77;;;31.80;;
11761;SDS011;5938;47.098;15.474;2022-10-16T20:34:57;41.57;;;30.90;;
11761;SDS011;5938;47.098;15.474;2022-10-16T20:39:06;45.47;;;31.93;;
11761;SDS011;5938;47.098;15.474;2022-10-16T20:43:12;47.73;;;32.80;;
11761;SDS011;5938;47.098;15.474;2022-10-16T20:47:17;48.53;;;32.13;;
11761;SDS011;5938;47.098;15.474;2022-10-16T20:51:22;50.13;;;30.47;;
11761;SDS011;5938;47.098;15.474;2022-10-16T20:55:35;41.57;;;29.67;;
11761;SDS011;5938;47.098;15.474;2022-10-16T20:59:40;51.70;;;31.70;;
11761;SDS011;5938;47.098;15.474;2022-10-16T21:03:47;49.40;;;29.60;;
11761;SDS011;5938;47.098;15.474;2022-10-16T21:07:52;48.67;;;32.63;;
11761;SDS011;5938;47.098;15.474;2022-10-16T21:11:55;42.70;;;30.97;;
11761;SDS011;5938;47.098;15.474;2022-10-16T21:16:00;47.20;;;30.37;;
11761;SDS011;5938;47.098;15.474;2022-10-16T21:20:04;46.80;;;32.03;;
11761;SDS011;5938;47.098;15.474;2022-10-16T21:24:10;44.23;;;30.03;;
11761;SDS011;5938;47.098;15.474;2022-10-16T21:28:17;49.90;;;31.17;;
11761;SDS011;5938;47.098;15.474;2022-10-16T21:32:22;54.07;;;33.37;;
11761;SDS011;5938;47.098;15.474;2022-10-16T21:36:26;45.57;;;31.87;;
11761;SDS011;5938;47.098;15.474;2022-10-16T21:40:31;45.47;;;32.03;;
11761;SDS011;5938;47.098;15.474;2022-10-16T21:44:35;47.73;;;31.77;;
11761;SDS011;5938;47.098;15.474;2022-10-16T21:48:53;52.90;;;31.87;;
11761;SDS011;5938;47.098;15.474;2022-10-16T21:52:57;46.60;;;31.43;;
11761;SDS011;5938;47.098;15.474;2022-10-16T21:57:01;46.47;;;30.43;;
11761;SDS011;5938;47.098;15.474;2022-10-16T22:01:09;47.50;;;32.57;;
11761;SDS011;5938;47.098;15.474;2022-10-16T22:05:16;49.50;;;31.30;;
11761;SDS011;5938;47.098;15.474;2022-10-16T22:09:19;48.73;;;32.03;;
11761;SDS011;5938;47.098;15.474;2022-10-16T22:13:23;51.37;;;33.17;;
11761;SDS011;5938;47.098;15.474;2022-10-16T22:17:26;52.23;;;32.00;;
11761;SDS011;5938;47.098;15.474;2022-10-16T22:21:32;41.97;;;30.17;;
11761;SDS011;5938;47.098;15.474;2022-10-16T22:25:35;49.73;;;32.30;;
11761;SDS011;5938;47.098;15.474;2022-10-16T22:29:40;43.47;;;29.67;;
11761;SDS011;5938;47.098;15.474;2022-10-16T22:33:43;52.40;;;34.57;;
11761;SDS011;5938;47.098;15.474;2022-10-16T22:37:48;49.17;;;33.37;;
11761;SDS011;5938;47.098;15.474;2022-10-16T22:41:51;44.77;;;31.23;;
11761;SDS011;5938;47.098;15.474;2022-10-16T22:45:54;47.20;;;29.50;;
11761;SDS011;5938;47.098;15.474;2022-10-16T22:50:04;53.00;;;32.80;;
11761;SDS011;5938;47.098;15.474;2022-10-16T22:54:09;46.40;;;33.30;;
11761;SDS011;5938;47.098;15.474;2022-10-16T22:58:13;43.27;;;29.37;;
11761;SDS011;5938;47.098;15.474;2022-10-16T23:02:16;44.43;;;30.97;;
11761;SDS011;5938;47.098;15.474;2022-10-16T23:06:19;47.00;;;29.17;;
11761;SDS011;5938;47.098;15.474;2022-10-16T23:10:25;51.50;;;33.27;;
11761;SDS011;5938;47.098;15.474;2022-10-16T23:14:30;50.07;;;32.50;;
11761;SDS011;5938;47.098;15.474;2022-10-16T23:18:33;45.23;;;29.57;;
11761;SDS011;5938;47.098;15.474;2022-10-16T23:22:37;45.83;;;29.97;;
11761;SDS011;5938;47.098;15.474;2022-10-16T23:26:41;43.17;;;29.17;;
11761;SDS011;5938;47.098;15.474;2022-10-16T23:30:45;41.37;;;29.73;;
11761;SDS011;5938;47.098;15.474;2022-10-16T23:34:48;43.97;;;30.00;;
11761;SDS011;5938;47.098;15.474;2022-10-16T23:38:52;45.50;;;28.50;;
11761;SDS011;5938;47.098;15.474;2022-10-16T23:42:57;52.43;;;28.30;;
11761;SDS011;5938;47.098;15.474;2022-10-16T23:47:00;48.00;;;31.80;;
11761;SDS011;5938;47.098;15.474;2022-10-16T23:51:04;49.27;;;29.90;;
11761;SDS011;5938;47.098;15.474;2022-10-16T23:55:08;47.23;;;28.97;;
11761;SDS011;5938;47.098;15.474;2022-10-16T23:59:13;45.53;;;31.67;;
